Time;durP1;ratioP1;P1;durP2;ratioP2;P2;SDS_P1;SDS_P2;PMS_P1;PMS_P2;Temp;Humidity;BMP_temperature;BMP_pressure;BME280_temperature;BME280_humidity;BME280_pressure;Samples;Min_cycle;Max_cycle;Signal;HPM_P1;HPM_P2
2020/12/22 00:00:49;;;;;;;;;;;;;;;8.54;100.00;98315.78;5051651;28;19946;-85
2020/12/22 00:03:14;;;;;;;;;;;;;;;8.61;100.00;98316.41;5069867;28;19916;-87
2020/12/22 00:05:39;;;;;;;;;;;;;;;8.64;100.00;98315.47;5043615;28;20011;-85
2020/12/22 00:08:09;;;;;;;;;;;;;;;8.66;100.00;98299.09;5052338;28;19923;-87
2020/12/22 00:10:35;;;;;;;;;;;;;;;8.69;100.00;98296.44;5069132;28;19920;-87
2020/12/22 00:13:00;;;;;;;;;;;;;;;8.75;100.00;98311.63;5069524;28;19916;-87
2020/12/22 00:15:25;;;;;;;;;;;;;;;8.78;100.00;98303.81;5057831;28;20023;-86
2020/12/22 00:17:50;;;;;;;;;;;;;;;8.75;100.00;98305.66;5045493;28;19943;-87
2020/12/22 00:20:17;;;;;;;;;;;;;;;8.84;100.00;98307.06;5048742;28;20019;-87
2020/12/22 00:22:45;;;;;;;;;;;;;;;8.86;100.00;98310.41;5049104;28;19975;-87
2020/12/22 00:25:10;;;;;;;;;;;;;;;8.89;100.00;98315.41;5049469;28;19919;-86
2020/12/22 00:27:36;;;;;;;;;;;;;;;8.97;100.00;98310.84;5049488;28;19916;-84
2020/12/22 00:30:02;;;;;;;;;;;;;;;8.82;100.00;98319.09;5052641;28;20358;-86
2020/12/22 00:32:28;;;;;;;;;;;;;;;8.85;100.00;98311.28;5052222;28;19928;-84
2020/12/22 00:34:53;;;;;;;;;;;;;;;8.83;100.00;98305.41;5035370;28;19921;-86
2020/12/22 00:37:18;;;;;;;;;;;;;;;8.84;100.00;98307.06;5052714;28;20352;-85
2020/12/22 00:39:44;;;;;;;;;;;;;;;8.87;100.00;98312.06;5052337;28;20420;-86
2020/12/22 00:42:09;;;;;;;;;;;;;;;8.93;100.00;98311.84;5052631;28;19916;-87
2020/12/22 00:44:34;;;;;;;;;;;;;;;8.92;100.00;98305.06;5052903;28;19913;-87
2020/12/22 00:46:59;;;;;;;;;;;;;;;8.97;100.00;98309.13;5052166;28;19921;-86
2020/12/22 00:49:25;;;;;;;;;;;;;;;8.95;100.00;98302.38;5052785;28;19912;-83
2020/12/22 00:51:50;;;;;;;;;;;;;;;9.03;100.00;98304.66;5052090;28;19924;-87
2020/12/22 00:54:16;;;;;;;;;;;;;;;8.96;100.00;98299.75;5052115;28;19920;-86
2020/12/22 00:56:41;;;;;;;;;;;;;;;9.05;100.00;98279.75;5042617;28;19916;-86
2020/12/22 00:59:07;;;;;;;;;;;;;;;9.07;100.00;98268.50;5052080;28;20389;-85
2020/12/22 01:01:32;;;;;;;;;;;;;;;9.07;100.00;98278.78;5052359;28;19966;-86
2020/12/22 01:03:58;;;;;;;;;;;;;;;9.10;100.00;98268.41;5051405;28;19925;-86
2020/12/22 01:06:23;;;;;;;;;;;;;;;9.11;100.00;98254.66;5053126;28;19919;-85
2020/12/22 01:08:48;;;;;;;;;;;;;;;9.25;100.00;98264.41;5054702;28;20384;-86
2020/12/22 01:11:13;;;;;;;;;;;;;;;9.20;100.00;98274.03;5036262;28;19916;-85
2020/12/22 01:13:39;;;;;;;;;;;;;;;9.17;100.00;98253.63;5045754;28;19928;-86
2020/12/22 01:16:04;;;;;;;;;;;;;;;9.28;100.00;98263.44;5054457;28;20396;-85
2020/12/22 01:18:29;;;;;;;;;;;;;;;9.25;100.00;98277.25;5064609;28;20021;-86
2020/12/22 01:20:55;;;;;;;;;;;;;;;9.43;100.00;98276.53;5073713;28;19924;-86
2020/12/22 01:23:21;;;;;;;;;;;;;;;9.42;100.00;98289.47;5056497;28;19927;-86
2020/12/22 01:25:46;;;;;;;;;;;;;;;9.41;100.00;98290.34;5073015;28;19916;-85
2020/12/22 01:28:11;;;;;;;;;;;;;;;9.45;100.00;98284.22;5072679;28;19912;-86
2020/12/22 01:30:37;;;;;;;;;;;;;;;9.57;100.00;98294.00;5056689;28;20334;-85
2020/12/22 01:33:03;;;;;;;;;;;;;;;9.39;100.00;98290.41;5065904;28;19959;-84
2020/12/22 01:35:28;;;;;;;;;;;;;;;9.69;100.00;98297.81;5090701;28;19946;-86
2020/12/22 01:37:54;;;;;;;;;;;;;;;9.76;100.00;98304.41;5062609;28;19959;-86
2020/12/22 01:40:19;;;;;;;;;;;;;;;9.75;100.00;98291.59;5072781;28;20391;-85
2020/12/22 01:42:44;;;;;;;;;;;;;;;9.75;100.00;98299.31;5072352;28;19927;-86
2020/12/22 01:45:10;;;;;;;;;;;;;;;9.71;100.00;98297.75;5055852;28;20277;-86
2020/12/22 01:47:35;;;;;;;;;;;;;;;9.79;100.00;98300.88;5053952;28;19920;-86
2020/12/22 01:50:01;;;;;;;;;;;;;;;9.77;100.00;98300.09;5060929;28;19916;-86
2020/12/22 01:52:26;;;;;;;;;;;;;;;9.58;100.00;98289.72;5060923;28;19963;-86
2020/12/22 01:54:51;;;;;;;;;;;;;;;9.65;100.00;98280.84;5059910;28;20008;-86
2020/12/22 01:57:16;;;;;;;;;;;;;;;9.73;100.00;98283.09;5070377;28;19916;-86
2020/12/22 01:59:42;;;;;;;;;;;;;;;9.58;100.00;98275.13;5062507;28;19912;-86
2020/12/22 02:02:07;;;;;;;;;;;;;;;9.57;100.00;98283.72;5054668;28;19928;-86
2020/12/22 02:04:34;;;;;;;;;;;;;;;9.53;100.00;98279.59;5053816;28;20014;-86
2020/12/22 02:06:59;;;;;;;;;;;;;;;9.45;100.00;98286.78;5070650;28;19927;-86
2020/12/22 02:09:24;;;;;;;;;;;;;;;9.56;100.00;98279.47;5053336;28;19916;-87
2020/12/22 02:11:50;;;;;;;;;;;;;;;9.62;100.00;98288.66;5053838;28;19951;-86
2020/12/22 02:14:15;;;;;;;;;;;;;;;9.56;100.00;98286.38;5069401;28;20442;-86
2020/12/22 02:16:40;;;;;;;;;;;;;;;9.55;100.00;98280.38;5060317;28;19916;-86
2020/12/22 02:19:06;;;;;;;;;;;;;;;9.53;100.00;98271.88;5062385;28;19923;-86
2020/12/22 02:21:32;;;;;;;;;;;;;;;9.52;100.00;98283.06;5070257;28;20050;-87
2020/12/22 02:23:57;;;;;;;;;;;;;;;9.59;100.00;98271.63;5054103;28;19923;-86
2020/12/22 02:26:23;;;;;;;;;;;;;;;9.57;100.00;98264.88;5059906;28;20270;-86
2020/12/22 02:28:48;;;;;;;;;;;;;;;9.65;100.00;98270.56;5082756;28;19916;-86
2020/12/22 02:31:14;;;;;;;;;;;;;;;9.68;100.00;98269.63;5058953;28;20010;-86
2020/12/22 02:33:39;;;;;;;;;;;;;;;9.60;100.00;98257.03;5060438;28;20389;-86
2020/12/22 02:36:11;;;;;;;;;;;;;;;9.57;100.00;98255.44;5053558;28;19919;-86
2020/12/22 02:38:37;;;;;;;;;;;;;;;9.61;100.00;98249.28;5061940;28;19923;-86
2020/12/22 02:41:02;;;;;;;;;;;;;;;9.63;100.00;98247.50;5068277;28;20942;-86
2020/12/22 02:43:27;;;;;;;;;;;;;;;9.68;100.00;98254.19;5058924;28;19916;-85
2020/12/22 02:45:53;;;;;;;;;;;;;;;9.58;100.00;98258.88;5059244;28;19912;-85
2020/12/22 02:48:18;;;;;;;;;;;;;;;9.64;100.00;98244.00;5069838;28;20266;-86
2020/12/22 02:50:43;;;;;;;;;;;;;;;9.66;100.00;98261.13;5059936;28;19916;-86
2020/12/22 02:53:09;;;;;;;;;;;;;;;9.57;100.00;98250.28;5057236;28;19966;-85
2020/12/22 02:55:34;;;;;;;;;;;;;;;9.66;100.00;98253.41;5059600;28;19966;-86
2020/12/22 02:57:59;;;;;;;;;;;;;;;9.63;100.00;98247.50;5043385;28;20022;-85
2020/12/22 03:00:25;;;;;;;;;;;;;;;9.74;100.00;98253.91;5087230;28;20369;-85
2020/12/22 03:02:51;;;;;;;;;;;;;;;9.67;100.00;98245.66;5069639;28;19920;-86
2020/12/22 03:05:16;;;;;;;;;;;;;;;9.75;100.00;98253.03;5053659;28;19916;-86
2020/12/22 03:07:42;;;;;;;;;;;;;;;9.69;100.00;98245.56;5087718;28;20285;-86
2020/12/22 03:10:11;;;;;;;;;;;;;;;9.66;100.00;98245.69;5069529;28;19939;-86
2020/12/22 03:12:36;;;;;;;;;;;;;;;9.67;100.00;98247.34;5061858;28;20388;-86
2020/12/22 03:15:03;;;;;;;;;;;;;;;9.71;100.00;98238.63;5061857;28;19920;-86
2020/12/22 03:17:28;;;;;;;;;;;;;;;9.77;100.00;98246.09;5061358;28;20320;-86
2020/12/22 03:19:53;;;;;;;;;;;;;;;9.77;100.00;98248.66;5052700;28;19926;-86
2020/12/22 03:22:19;;;;;;;;;;;;;;;9.77;100.00;98248.66;5069353;28;19961;-86
2020/12/22 03:24:44;;;;;;;;;;;;;;;9.91;100.00;98243.78;5052908;28;19920;-86
2020/12/22 03:27:09;;;;;;;;;;;;;;;9.80;100.00;98244.22;5052027;28;19931;-86
2020/12/22 03:29:34;;;;;;;;;;;;;;;9.90;100.00;98249.84;5061082;28;20058;-86
2020/12/22 03:32:00;;;;;;;;;;;;;;;9.83;100.00;98240.72;5056905;28;20307;-84
2020/12/22 03:34:25;;;;;;;;;;;;;;;9.80;100.00;98235.69;5073968;28;19912;-84
2020/12/22 03:36:51;;;;;;;;;;;;;;;9.90;100.00;98254.13;5073572;28;20369;-86
2020/12/22 03:39:17;;;;;;;;;;;;;;;9.98;100.00;98250.34;5065748;28;19964;-86
2020/12/22 03:41:42;;;;;;;;;;;;;;;10.03;100.00;98258.72;5067128;28;19970;-84
2020/12/22 03:44:09;;;;;;;;;;;;;;;10.12;100.00;98261.81;5065456;28;20444;-84
2020/12/22 03:46:34;;;;;;;;;;;;;;;10.12;100.00;98254.06;5081812;28;20935;-85
2020/12/22 03:48:59;;;;;;;;;;;;;;;10.11;100.00;98262.72;5075891;28;19920;-85
2020/12/22 03:51:24;;;;;;;;;;;;;;;10.24;100.00;98266.41;5074940;28;19916;-85
2020/12/22 03:53:50;;;;;;;;;;;;;;;10.33;100.00;98257.50;5074674;28;19912;-84
2020/12/22 03:56:15;;;;;;;;;;;;;;;10.36;100.00;98258.22;5064394;28;20414;-84
2020/12/22 03:58:40;;;;;;;;;;;;;;;10.29;100.00;98256.81;5073369;28;19912;-85
2020/12/22 04:01:06;;;;;;;;;;;;;;;10.39;100.00;98246.97;5072956;28;20026;-86
2020/12/22 04:03:31;;;;;;;;;;;;;;;10.35;100.00;98248.81;5066099;28;20300;-87
2020/12/22 04:05:56;;;;;;;;;;;;;;;10.45;100.00;98257.81;5070180;28;19951;-85
2020/12/22 04:08:22;;;;;;;;;;;;;;;10.45;100.00;98251.84;5083345;28;19958;-86
2020/12/22 04:10:47;;;;;;;;;;;;;;;10.63;100.00;98253.63;5076433;28;19921;-85
2020/12/22 04:13:12;;;;;;;;;;;;;;;10.53;100.00;98259.22;5068997;28;20357;-85
2020/12/22 04:15:38;;;;;;;;;;;;;;;10.50;100.00;98272.25;5076580;28;20068;-86
2020/12/22 04:18:03;;;;;;;;;;;;;;;10.76;100.00;98284.78;5076944;28;21373;-84
2020/12/22 04:20:28;;;;;;;;;;;;;;;10.69;100.00;98265.38;5086661;28;19912;-84
2020/12/22 04:22:54;;;;;;;;;;;;;;;10.67;100.00;98259.44;5078297;28;19912;-84
2020/12/22 04:25:19;;;;;;;;;;;;;;;10.70;100.00;98274.78;5068188;28;19926;-86
2020/12/22 04:27:44;;;;;;;;;;;;;;;10.86;100.00;98275.75;5084342;28;19920;-85
2020/12/22 04:30:10;;;;;;;;;;;;;;;10.87;100.00;98264.53;5068419;28;19988;-85
2020/12/22 04:32:35;;;;;;;;;;;;;;;10.93;100.00;98265.19;5068100;28;20439;-84
2020/12/22 04:35:00;;;;;;;;;;;;;;;10.92;100.00;98277.22;5068067;28;19916;-86
2020/12/22 04:37:26;;;;;;;;;;;;;;;10.91;100.00;98277.31;5092033;28;19916;-85
2020/12/22 04:39:51;;;;;;;;;;;;;;;10.87;100.00;98271.44;5067696;28;19912;-85
2020/12/22 04:42:16;;;;;;;;;;;;;;;10.98;100.00;98287.25;5091166;28;19928;-84
2020/12/22 04:44:42;;;;;;;;;;;;;;;10.96;100.00;98283.91;5081593;28;20011;-83
2020/12/22 04:47:08;;;;;;;;;;;;;;;11.06;100.00;98285.19;5065627;28;19912;-85
2020/12/22 04:49:34;;;;;;;;;;;;;;;11.06;100.00;98286.88;5079380;28;19911;-84
2020/12/22 04:51:59;;;;;;;;;;;;;;;11.06;100.00;98294.63;5080587;28;19916;-85
2020/12/22 04:54:24;;;;;;;;;;;;;;;11.16;100.00;98289.91;5064892;28;19920;-85
2020/12/22 04:56:49;;;;;;;;;;;;;;;11.04;100.00;98286.16;5065617;28;19924;-85
2020/12/22 04:59:15;;;;;;;;;;;;;;;11.20;100.00;98287.13;5064008;28;19916;-84
2020/12/22 05:01:44;;;;;;;;;;;;;;;11.29;100.00;98301.34;5083072;28;19992;-83
2020/12/22 05:04:10;;;;;;;;;;;;;;;11.09;100.00;98304.81;5082329;28;20480;-85
2020/12/22 05:06:35;;;;;;;;;;;;;;;11.15;100.00;98294.19;5094800;28;20545;-84
2020/12/22 05:09:01;;;;;;;;;;;;;;;11.21;100.00;98299.09;5079904;28;19916;-85
2020/12/22 05:11:26;;;;;;;;;;;;;;;11.40;100.00;98313.69;5091640;28;19973;-85
2020/12/22 05:13:52;;;;;;;;;;;;;;;11.41;100.00;98315.38;5083793;28;19967;-84
2020/12/22 05:16:17;;;;;;;;;;;;;;;11.42;100.00;98322.22;5066091;28;19919;-84
2020/12/22 05:18:42;;;;;;;;;;;;;;;11.42;100.00;98317.88;5064099;28;20561;-83
2020/12/22 05:21:07;;;;;;;;;;;;;;;11.40;100.00;98308.53;5077112;28;19928;-86
2020/12/22 05:23:33;;;;;;;;;;;;;;;11.46;100.00;98308.28;5063344;28;19923;-84
2020/12/22 05:25:58;;;;;;;;;;;;;;;11.45;100.00;98307.44;5066786;28;19923;-86
2020/12/22 05:28:23;;;;;;;;;;;;;;;11.43;100.00;98303.28;5078704;28;19916;-86
2020/12/22 05:30:49;;;;;;;;;;;;;;;11.58;100.00;98297.38;5074913;28;20136;-85
2020/12/22 05:33:15;;;;;;;;;;;;;;;11.56;100.00;98296.59;5080821;28;19955;-85
2020/12/22 05:35:47;;;;;;;;;;;;;;;11.49;100.00;98296.09;5066785;28;19912;-83
2020/12/22 05:38:18;;;;;;;;;;;;;;;11.66;100.00;98305.59;5066195;28;19920;-84
2020/12/22 05:40:43;;;;;;;;;;;;;;;11.65;100.00;98316.78;5080217;28;19923;-85
2020/12/22 05:43:09;;;;;;;;;;;;;;;11.52;100.00;98308.81;5066605;28;19912;-83
2020/12/22 05:45:34;;;;;;;;;;;;;;;11.51;100.00;98314.88;5064917;28;19916;-83
2020/12/22 05:48:00;;;;;;;;;;;;;;;11.56;100.00;98304.34;5078639;28;19923;-84
2020/12/22 05:50:26;;;;;;;;;;;;;;;11.67;100.00;98306.41;5065255;28;19999;-86
2020/12/22 05:52:52;;;;;;;;;;;;;;;11.68;100.00;98319.25;5066319;28;20292;-86
2020/12/22 05:55:24;;;;;;;;;;;;;;;11.73;100.00;98322.44;5083486;28;19916;-84
2020/12/22 05:57:49;;;;;;;;;;;;;;;11.66;100.00;98315.91;5075478;28;19946;-85
2020/12/22 06:00:15;;;;;;;;;;;;;;;11.76;100.00;98303.41;5078954;28;19916;-84
2020/12/22 06:02:40;;;;;;;;;;;;;;;11.79;100.00;98323.03;5080315;28;20322;-86
2020/12/22 06:05:06;;;;;;;;;;;;;;;11.86;100.00;98314.97;5065316;28;19951;-87
2020/12/22 06:07:31;;;;;;;;;;;;;;;11.84;100.00;98315.94;5065922;28;19923;-85
2020/12/22 06:09:56;;;;;;;;;;;;;;;11.82;100.00;98312.59;5062601;28;20368;-83
2020/12/22 06:12:22;;;;;;;;;;;;;;;11.86;100.00;98314.09;5064323;28;19919;-84
2020/12/22 06:14:48;;;;;;;;;;;;;;;11.93;100.00;98328.44;5062242;28;19912;-83
2020/12/22 06:17:14;;;;;;;;;;;;;;;11.87;100.00;98318.38;5066573;28;19954;-86
2020/12/22 06:19:39;;;;;;;;;;;;;;;12.00;100.00;98329.81;5078180;28;19916;-85
2020/12/22 06:22:05;;;;;;;;;;;;;;;11.87;100.00;98318.38;5092816;28;19916;-86
2020/12/22 06:24:33;;;;;;;;;;;;;;;11.90;100.00;98318.25;5060705;28;19912;-84
2020/12/22 06:27:02;;;;;;;;;;;;;;;11.84;100.00;98321.94;5074790;28;19927;-87
2020/12/22 06:29:28;;;;;;;;;;;;;;;11.87;100.00;98357.94;5066110;28;19916;-87
2020/12/22 06:31:53;;;;;;;;;;;;;;;11.88;100.00;98340.69;5079421;28;19947;-84
2020/12/22 06:34:22;;;;;;;;;;;;;;;11.96;100.00;98342.94;5078189;28;19939;-86
2020/12/22 06:36:58;;;;;;;;;;;;;;;11.91;100.00;98341.41;5080301;28;20504;-85
2020/12/22 06:39:42;;;;;;;;;;;;;;;11.96;100.00;98348.91;5063816;28;19923;-84
2020/12/22 06:42:08;;;;;;;;;;;;;;;11.91;100.00;98351.72;5083281;28;19924;-83
2020/12/22 06:44:34;;;;;;;;;;;;;;;11.95;100.00;98357.59;5071055;28;19912;-84
2020/12/22 06:46:59;;;;;;;;;;;;;;;12.04;100.00;98366.59;5075980;28;19935;-86
2020/12/22 06:49:44;;;;;;;;;;;;;;;11.88;100.00;98361.34;5080163;28;19943;-84
2020/12/22 06:52:28;;;;;;;;;;;;;;;11.94;100.00;98373.97;5081058;28;19928;-87
2020/12/22 06:54:53;;;;;;;;;;;;;;;11.85;100.00;98371.78;5098403;28;19968;-86
2020/12/22 06:57:51;;;;;;;;;;;;;;;11.96;100.00;98372.16;5062737;28;19939;-84
2020/12/22 07:00:25;;;;;;;;;;;;;;;11.83;100.00;98379.59;5056834;28;19920;-85
2020/12/22 07:02:51;;;;;;;;;;;;;;;11.90;100.00;98388.72;5081002;28;19916;-84
2020/12/22 07:05:35;;;;;;;;;;;;;;;11.76;100.00;98382.53;5062176;28;19919;-82
2020/12/22 07:08:01;;;;;;;;;;;;;;;11.87;100.00;98401.78;5076947;28;19927;-83
2020/12/22 07:10:27;;;;;;;;;;;;;;;11.88;100.00;98387.13;5074959;28;19924;-83
2020/12/22 07:12:53;;;;;;;;;;;;;;;11.94;100.00;98392.03;5077007;28;19916;-84
2020/12/22 07:15:18;;;;;;;;;;;;;;;11.92;100.00;98404.16;5073052;28;19944;-84
2020/12/22 07:17:44;;;;;;;;;;;;;;;11.78;100.00;98404.78;5086003;28;19924;-84
2020/12/22 07:20:09;;;;;;;;;;;;;;;11.69;100.00;98411.19;5057776;28;19916;-84
2020/12/22 07:22:34;;;;;;;;;;;;;;;11.69;100.00;98416.34;5069505;28;19912;-83
2020/12/22 07:25:02;;;;;;;;;;;;;;;11.66;100.00;98403.59;5057824;28;20284;-82
2020/12/22 07:27:27;;;;;;;;;;;;;;;11.70;100.00;98405.13;5071044;28;20435;-85
2020/12/22 07:29:52;;;;;;;;;;;;;;;11.60;100.00;98429.66;5073763;28;19924;-85
2020/12/22 07:32:17;;;;;;;;;;;;;;;11.57;100.00;98418.66;5072051;28;19931;-84
2020/12/22 07:34:43;;;;;;;;;;;;;;;11.59;100.00;98438.31;5056614;28;20577;-84
2020/12/22 07:37:09;;;;;;;;;;;;;;;11.58;100.00;98441.78;5054717;28;19928;-84
2020/12/22 07:39:35;;;;;;;;;;;;;;;11.55;100.00;98436.78;5061307;28;19912;-84
2020/12/22 07:42:27;;;;;;;;;;;;;;;11.58;100.00;98434.03;5072603;28;20062;-84
2020/12/22 07:44:52;;;;;;;;;;;;;;;11.54;100.00;98434.25;5092872;28;20538;-83
2020/12/22 07:47:18;;;;;;;;;;;;;;;11.56;100.00;98438.44;5097891;28;19947;-82
2020/12/22 07:49:43;;;;;;;;;;;;;;;11.55;100.00;98435.94;5060886;28;19923;-84
2020/12/22 07:52:13;;;;;;;;;;;;;;;11.47;100.00;98444.00;5058265;28;19978;-84
2020/12/22 07:54:38;;;;;;;;;;;;;;;11.55;100.00;98451.41;5073803;28;20435;-84
2020/12/22 07:57:03;;;;;;;;;;;;;;;11.55;100.00;98449.66;5059581;28;19916;-83
2020/12/22 07:59:29;;;;;;;;;;;;;;;11.61;100.00;98457.13;5056995;28;20199;-84
2020/12/22 08:01:54;;;;;;;;;;;;;;;11.59;100.00;98448.63;5059401;28;19922;-84
2020/12/22 08:04:20;;;;;;;;;;;;;;;11.60;100.00;98454.63;5076148;28;19920;-84
2020/12/22 08:06:59;;;;;;;;;;;;;;;11.57;100.00;98458.19;5058283;28;20341;-83
2020/12/22 08:09:31;;;;;;;;;;;;;;;11.57;100.00;98459.94;5075272;28;20514;-83
2020/12/22 08:11:58;;;;;;;;;;;;;;;11.57;100.00;98455.59;5061265;28;19920;-84
2020/12/22 08:14:23;;;;;;;;;;;;;;;11.53;100.00;98454.06;5061598;28;19958;-85
2020/12/22 08:16:50;;;;;;;;;;;;;;;11.57;100.00;98463.34;5077035;28;19943;-83
2020/12/22 08:19:15;;;;;;;;;;;;;;;11.57;100.00;98481.38;5059547;28;19928;-84
2020/12/22 08:21:40;;;;;;;;;;;;;;;11.59;100.00;98479.56;5047611;28;19926;-84
2020/12/22 08:24:06;;;;;;;;;;;;;;;11.55;100.00;98478.03;5049516;28;19923;-83
2020/12/22 08:26:31;;;;;;;;;;;;;;;11.50;100.00;98480.00;5046948;28;20020;-84
2020/12/22 08:28:56;;;;;;;;;;;;;;;11.57;100.00;98481.38;5038659;28;19917;-83
2020/12/22 08:31:23;;;;;;;;;;;;;;;11.55;100.00;98485.78;5051657;28;19967;-84
2020/12/22 08:33:52;;;;;;;;;;;;;;;11.51;100.00;98489.38;5036994;28;19917;-84
2020/12/22 08:36:18;;;;;;;;;;;;;;;11.63;100.00;98496.59;5051751;28;19912;-84
2020/12/22 08:38:45;;;;;;;;;;;;;;;11.55;100.00;98485.78;5045812;28;19919;-83
2020/12/22 08:41:17;;;;;;;;;;;;;;;11.66;100.00;98496.44;5037838;28;19927;-84
2020/12/22 08:43:50;;;;;;;;;;;;;;;11.68;100.00;98504.13;5038152;28;19913;-83
2020/12/22 08:46:16;;;;;;;;;;;;;;;11.59;100.00;98513.09;5051762;28;19916;-83
2020/12/22 08:48:41;;;;;;;;;;;;;;;11.64;100.00;98505.16;5047405;28;20395;-84
2020/12/22 08:51:06;;;;;;;;;;;;;;;11.69;100.00;98519.53;5040407;28;19917;-83
2020/12/22 08:53:32;;;;;;;;;;;;;;;11.68;100.00;98530.75;5054169;28;20432;-83
2020/12/22 08:56:09;;;;;;;;;;;;;;;11.72;100.00;98534.03;5041197;28;20058;-83
2020/12/22 08:58:35;;;;;;;;;;;;;;;11.68;100.00;98535.09;5058773;28;19913;-83
2020/12/22 09:01:21;;;;;;;;;;;;;;;11.68;100.00;98525.59;5056087;28;19912;-83
2020/12/22 09:03:50;;;;;;;;;;;;;;;11.69;100.00;98537.56;5056396;28;20619;-83
2020/12/22 09:06:15;;;;;;;;;;;;;;;11.78;100.00;98548.41;5059262;28;19920;-85
2020/12/22 09:08:41;;;;;;;;;;;;;;;11.73;100.00;98557.19;5054889;28;20384;-83
2020/12/22 09:11:16;;;;;;;;;;;;;;;11.72;100.00;98547.78;5058307;28;19924;-83
2020/12/22 09:13:41;;;;;;;;;;;;;;;11.75;100.00;98553.72;5041637;28;19916;-82
2020/12/22 09:16:07;;;;;;;;;;;;;;;11.72;100.00;98552.94;5059292;28;19997;-83
2020/12/22 09:18:33;;;;;;;;;;;;;;;11.78;100.00;98561.31;5058903;28;19920;-84
2020/12/22 09:21:05;;;;;;;;;;;;;;;11.77;100.00;98562.19;5075728;28;19920;-82
2020/12/22 09:23:30;;;;;;;;;;;;;;;11.81;100.00;98561.16;5060205;28;19916;-82
2020/12/22 09:25:56;;;;;;;;;;;;;;;11.79;100.00;98557.81;5059574;28;20464;-82
2020/12/22 09:28:21;;;;;;;;;;;;;;;11.79;100.00;98557.81;5058738;28;19912;-82
2020/12/22 09:30:47;;;;;;;;;;;;;;;11.75;100.00;98571.78;5076992;28;20020;-82
2020/12/22 09:33:12;;;;;;;;;;;;;;;11.81;100.00;98567.16;5046839;28;19995;-84
2020/12/22 09:35:37;;;;;;;;;;;;;;;11.83;100.00;98572.25;5059170;28;19994;-84
2020/12/22 09:38:03;;;;;;;;;;;;;;;11.83;100.00;98569.66;5058933;28;19923;-84
2020/12/22 09:40:28;;;;;;;;;;;;;;;11.84;100.00;98573.94;5075103;28;19974;-83
2020/12/22 09:42:53;;;;;;;;;;;;;;;11.99;100.00;98570.69;5056633;28;20497;-81
2020/12/22 09:45:19;;;;;;;;;;;;;;;12.00;100.00;98571.56;5075110;28;20005;-82
2020/12/22 09:47:44;;;;;;;;;;;;;;;12.05;100.00;98574.75;5056974;28;19912;-83
2020/12/22 09:50:09;;;;;;;;;;;;;;;11.99;100.00;98593.91;5060231;28;19928;-83
2020/12/22 09:52:35;;;;;;;;;;;;;;;12.01;100.00;98586.13;5040564;28;19970;-82
2020/12/22 09:55:00;;;;;;;;;;;;;;;11.97;100.00;98587.97;5054005;28;19923;-82
2020/12/22 09:57:25;;;;;;;;;;;;;;;11.97;100.00;98580.25;5055767;28;19920;-83
2020/12/22 09:59:50;;;;;;;;;;;;;;;12.01;100.00;98605.00;5054659;28;20383;-83
2020/12/22 10:02:16;;;;;;;;;;;;;;;12.06;100.00;98597.91;5069664;28;19999;-82
2020/12/22 10:04:41;;;;;;;;;;;;;;;12.14;99.81;98605.31;5054119;28;19926;-84
2020/12/22 10:07:07;;;;;;;;;;;;;;;12.21;100.00;98596.38;5040534;28;19916;-83
2020/12/22 10:09:32;;;;;;;;;;;;;;;12.25;98.84;98602.25;5055552;28;19928;-82
2020/12/22 10:11:57;;;;;;;;;;;;;;;12.33;98.59;98589.81;5072741;28;19939;-83
2020/12/22 10:14:22;;;;;;;;;;;;;;;12.22;98.23;98605.78;5049325;28;19920;-82
2020/12/22 10:16:48;;;;;;;;;;;;;;;12.25;97.89;98612.59;5070051;28;19948;-82
2020/12/22 10:19:13;;;;;;;;;;;;;;;12.12;97.73;98602.78;5069807;28;19943;-81
2020/12/22 10:21:38;;;;;;;;;;;;;;;12.12;97.64;98615.72;5090877;28;19912;-83
2020/12/22 10:24:07;;;;;;;;;;;;;;;12.13;97.35;98609.66;5071873;28;20495;-82
2020/12/22 10:26:32;;;;;;;;;;;;;;;12.19;96.34;98624.00;5069456;28;19923;-82
2020/12/22 10:28:57;;;;;;;;;;;;;;;12.13;96.85;98627.72;5055460;28;19909;-82
2020/12/22 10:31:25;;;;;;;;;;;;;;;12.13;97.28;98619.97;5071054;28;19920;-82
2020/12/22 10:33:50;;;;;;;;;;;;;;;12.17;96.44;98625.00;5064663;28;19920;-83
2020/12/22 10:36:16;;;;;;;;;;;;;;;12.14;95.54;98621.63;5072648;28;19917;-83
2020/12/22 10:38:41;;;;;;;;;;;;;;;12.18;95.61;98626.66;5072757;28;19916;-81
2020/12/22 10:41:07;;;;;;;;;;;;;;;12.11;95.24;98633.84;5056138;28;19920;-81
2020/12/22 10:43:32;;;;;;;;;;;;;;;12.09;96.23;98628.75;5073666;28;19916;-82
2020/12/22 10:45:58;;;;;;;;;;;;;;;12.04;94.47;98656.53;5068915;28;19916;-81
2020/12/22 10:48:23;;;;;;;;;;;;;;;12.03;94.76;98649.66;5080414;28;19912;-81
2020/12/22 10:50:48;;;;;;;;;;;;;;;12.01;94.03;98650.63;5089438;28;20408;-82
2020/12/22 10:53:14;;;;;;;;;;;;;;;12.03;93.90;98654.81;5080088;28;20433;-83
2020/12/22 10:55:39;;;;;;;;;;;;;;;11.96;94.38;98653.41;5066189;28;20086;-83
2020/12/22 10:58:05;;;;;;;;;;;;;;;11.97;93.28;98649.91;5078509;28;20010;-82
2020/12/22 11:00:30;;;;;;;;;;;;;;;11.87;94.13;98658.94;5075634;28;19920;-82
2020/12/22 11:02:59;;;;;;;;;;;;;;;11.80;94.31;98653.22;5074004;28;20254;-81
2020/12/22 11:08:09;;;;;;;;;;;;;;;11.66;96.23;98666.69;5094111;28;19977;-82
2020/12/22 11:10:35;;;;;;;;;;;;;;;11.68;96.72;98664.06;5077054;28;19916;-82
2020/12/22 11:13:00;;;;;;;;;;;;;;;11.54;98.55;98672.38;5077404;28;20270;-81
2020/12/22 11:15:26;;;;;;;;;;;;;;;11.50;99.15;98670.81;5064259;28;19962;-82
2020/12/22 11:17:51;;;;;;;;;;;;;;;11.48;99.38;98672.59;5065750;28;20011;-84
2020/12/22 11:20:17;;;;;;;;;;;;;;;11.43;100.00;98679.69;5071950;28;19924;-83
2020/12/22 11:22:42;;;;;;;;;;;;;;;11.32;100.00;98682.69;5059182;28;19916;-81
2020/12/22 11:25:07;;;;;;;;;;;;;;;11.28;100.00;98687.13;5058608;28;19928;-83
2020/12/22 11:27:32;;;;;;;;;;;;;;;11.24;100.00;98677.88;5057589;28;19955;-82
2020/12/22 11:29:58;;;;;;;;;;;;;;;11.38;100.00;98687.63;5060082;28;19920;-82
2020/12/22 11:32:23;;;;;;;;;;;;;;;11.55;100.00;98684.34;5043069;28;19920;-82
2020/12/22 11:34:48;;;;;;;;;;;;;;;11.53;100.00;98688.72;5050153;28;20393;-82
2020/12/22 11:37:14;;;;;;;;;;;;;;;11.53;100.00;98686.16;5059330;28;19912;-83
2020/12/22 11:39:40;;;;;;;;;;;;;;;11.44;100.00;98689.09;5042197;28;19974;-83
2020/12/22 11:42:05;;;;;;;;;;;;;;;11.43;100.00;98701.16;5056131;28;19917;-84
2020/12/22 11:44:30;;;;;;;;;;;;;;;11.44;100.00;98696.84;5051497;28;19927;-82
2020/12/22 11:46:56;;;;;;;;;;;;;;;11.46;100.00;98695.03;5072819;28;19974;-82
2020/12/22 11:49:22;;;;;;;;;;;;;;;11.49;100.00;98705.22;5053962;28;20301;-82
2020/12/22 11:51:47;;;;;;;;;;;;;;;11.46;100.00;98710.50;5041826;28;19960;-83
2020/12/22 11:54:13;;;;;;;;;;;;;;;11.54;100.00;98703.31;5074784;28;19920;-81
2020/12/22 11:56:38;;;;;;;;;;;;;;;11.54;100.00;98707.59;5073489;28;19943;-82
2020/12/22 11:59:03;;;;;;;;;;;;;;;11.52;100.00;98705.13;5055414;28;19920;-82
2020/12/22 12:01:29;;;;;;;;;;;;;;;11.47;100.00;98709.59;5072794;28;19919;-83
2020/12/22 12:03:54;;;;;;;;;;;;;;;11.52;100.00;98710.28;5059190;28;20321;-84
2020/12/22 12:06:22;;;;;;;;;;;;;;;11.47;100.00;98707.88;5059265;28;19921;-84
2020/12/22 12:08:47;;;;;;;;;;;;;;;11.44;100.00;98717.47;5056363;28;19962;-82
2020/12/22 12:11:12;;;;;;;;;;;;;;;11.49;100.00;98715.53;5043129;28;20068;-83
2020/12/22 12:13:38;;;;;;;;;;;;;;;11.50;100.00;98722.38;5073235;28;19916;-82
2020/12/22 12:16:04;;;;;;;;;;;;;;;11.54;100.00;98729.09;5059573;28;20393;-83
2020/12/22 12:18:30;;;;;;;;;;;;;;;11.51;100.00;98724.88;5071102;28;20373;-82
2020/12/22 12:20:55;;;;;;;;;;;;;;;11.50;100.00;98722.38;5071781;28;19912;-82
2020/12/22 12:23:20;;;;;;;;;;;;;;;11.51;100.00;98730.03;5081217;28;20284;-82
2020/12/22 12:25:45;;;;;;;;;;;;;;;11.54;100.00;98729.09;5066135;28;19912;-81
2020/12/22 12:28:11;;;;;;;;;;;;;;;11.53;100.00;98727.41;5082032;28;20408;-82
2020/12/22 12:30:36;;;;;;;;;;;;;;;11.56;100.00;98732.44;5073782;28;19920;-82
2020/12/22 12:33:01;;;;;;;;;;;;;;;11.62;100.00;98732.19;5064260;28;19916;-82
2020/12/22 12:35:27;;;;;;;;;;;;;;;11.55;100.00;98741.09;5081091;28;19916;-81
2020/12/22 12:37:52;;;;;;;;;;;;;;;11.56;100.00;98737.59;5080440;28;19948;-82